createdAt,value
2022-09-28T00:00:51.831Z,1.00
2022-09-28T00:05:54.723Z,1.20
2022-09-28T00:10:58.245Z,1.10
2022-09-28T00:16:04.408Z,1.30
2022-09-28T00:21:10.024Z,1.27
2022-09-28T00:26:12.895Z,1.20
2022-09-28T00:31:17.925Z,1.10
2022-09-28T00:36:20.926Z,1.00
2022-09-28T00:41:24.591Z,0.90
2022-09-28T00:46:34.001Z,0.93
2022-09-28T00:51:39.552Z,1.00
2022-09-28T00:56:44.002Z,0.80
2022-09-28T01:01:49.333Z,0.60
2022-09-28T01:06:53.125Z,0.67
2022-09-28T01:11:56.165Z,0.70
2022-09-28T01:17:06.698Z,0.50
2022-09-28T01:22:29.730Z,0.40
2022-09-28T01:27:36.554Z,0.50
2022-09-28T01:32:48.882Z,0.37
2022-09-28T01:37:57.907Z,0.40
2022-09-28T01:43:06.904Z,0.40
2022-09-28T01:48:12.515Z,0.50
2022-09-28T01:53:21.513Z,0.43
2022-09-28T01:58:31.190Z,0.30
2022-09-28T02:03:39.379Z,0.40
2022-09-28T02:08:50.348Z,0.40
2022-09-28T02:13:59.808Z,0.27
2022-09-28T02:19:04.261Z,0.40
2022-09-28T02:24:20.630Z,0.50
2022-09-28T02:29:26.263Z,0.57
2022-09-28T02:34:29.490Z,0.43
2022-09-28T02:39:32.641Z,0.40
2022-09-28T02:45:05.902Z,0.50
2022-09-28T02:50:21.952Z,0.50
2022-09-28T02:55:37.435Z,0.80
2022-09-28T03:00:47.482Z,0.50
2022-09-28T03:06:01.474Z,0.67
2022-09-28T03:11:15.764Z,0.60
2022-09-28T03:16:21.589Z,0.80
2022-09-28T03:21:25.937Z,0.60
2022-09-28T03:26:29.081Z,0.50
2022-09-28T03:31:33.616Z,0.70
2022-09-28T03:36:37.754Z,0.70
2022-09-28T03:41:41.099Z,1.00
2022-09-28T03:46:45.560Z,0.80
2022-09-28T03:51:48.812Z,0.83
2022-09-28T03:56:51.907Z,0.87
2022-09-28T04:01:56.252Z,0.70
2022-09-28T04:06:59.538Z,0.97
2022-09-28T04:12:04.494Z,2.03
2022-09-28T04:17:10.353Z,2.60
2022-09-28T04:22:14.255Z,1.30
2022-09-28T04:27:34.580Z,1.07
2022-09-28T04:32:39.912Z,0.80
2022-09-28T04:37:43.115Z,0.90
2022-09-28T04:42:46.076Z,0.80
2022-09-28T04:47:51.472Z,0.90
2022-09-28T04:53:20.973Z,1.00
2022-09-28T04:58:24.259Z,0.67
2022-09-28T05:03:29.131Z,0.63
2022-09-28T05:08:53.858Z,0.90
2022-09-28T05:13:57.052Z,0.80
2022-09-28T05:19:01.995Z,1.00
2022-09-28T05:24:07.557Z,0.77
2022-09-28T05:29:12.915Z,0.80
2022-09-28T05:34:49.466Z,1.00
2022-09-28T05:40:00.503Z,0.80
2022-09-28T05:45:04.325Z,0.87
2022-09-28T05:50:11.760Z,0.70
2022-09-28T05:55:15.508Z,0.93
2022-09-28T06:00:19.006Z,0.80
2022-09-28T06:05:31.184Z,0.90
2022-09-28T06:10:35.265Z,0.67
2022-09-28T06:15:39.554Z,0.97
2022-09-28T06:20:44.573Z,1.00
2022-09-28T06:25:52.010Z,0.70
2022-09-28T06:30:55.135Z,1.00
2022-09-28T06:36:01.542Z,0.80
2022-09-28T06:41:04.626Z,0.70
2022-09-28T06:46:09.718Z,0.90
2022-09-28T06:51:33.354Z,1.03
2022-09-28T06:56:54.626Z,1.03
2022-09-28T07:01:57.858Z,1.20
2022-09-28T07:07:22.196Z,0.50
2022-09-28T07:12:39.795Z,1.00
2022-09-28T07:18:03.905Z,0.87
2022-09-28T07:23:18.483Z,0.80
2022-09-28T07:28:41.490Z,0.57
2022-09-28T07:33:56.587Z,0.63
2022-09-28T07:39:12.192Z,0.77
2022-09-28T07:44:17.429Z,0.83
2022-09-28T07:49:22.947Z,0.87
2022-09-28T07:54:54.143Z,0.60
2022-09-28T08:00:15.653Z,0.97
2022-09-28T08:05:21.936Z,0.77
2022-09-28T08:10:26.399Z,0.80
2022-09-28T08:16:08.953Z,0.87
2022-09-28T08:21:46.572Z,0.90
2022-09-28T08:26:51.528Z,0.80
2022-09-28T08:31:58.305Z,0.90
2022-09-28T08:37:22.104Z,1.10
2022-09-28T08:42:45.992Z,1.07
2022-09-28T08:48:37.837Z,0.70
2022-09-28T08:54:01.403Z,1.00
2022-09-28T08:59:16.045Z,0.93
2022-09-28T09:04:21.209Z,0.90
2022-09-28T09:09:59.798Z,0.73
2022-09-28T09:15:38.768Z,0.73
2022-09-28T09:20:56.659Z,0.60
2022-09-28T09:26:16.499Z,0.80
2022-09-28T09:31:36.128Z,1.00
2022-09-28T09:36:59.646Z,0.60
2022-09-28T09:42:49.047Z,0.90
2022-09-28T09:48:20.625Z,0.53
2022-09-28T09:53:28.789Z,0.70
2022-09-28T09:58:36.613Z,0.60
2022-09-28T10:04:21.779Z,0.50
2022-09-28T10:09:29.968Z,0.50
2022-09-28T10:14:46.307Z,0.40
2022-09-28T10:19:51.486Z,0.67
2022-09-28T10:25:15.320Z,0.60
2022-09-28T10:30:22.464Z,0.30
2022-09-28T10:35:30.476Z,0.50
2022-09-28T10:40:44.244Z,0.50
2022-09-28T10:45:48.443Z,0.50
2022-09-28T10:51:05.827Z,0.60
2022-09-28T10:56:21.409Z,0.60
2022-09-28T11:01:34.454Z,0.47
2022-09-28T11:12:07.449Z,0.50
2022-09-28T11:17:16.967Z,0.33
2022-09-28T11:22:26.079Z,0.40
2022-09-28T11:27:33.559Z,0.50
2022-09-28T11:32:44.076Z,0.30
2022-09-28T11:38:15.854Z,0.50
2022-09-28T11:43:52.874Z,0.60
2022-09-28T11:48:59.029Z,0.33
2022-09-28T11:54:14.224Z,0.60
2022-09-28T11:59:23.394Z,0.50
2022-09-28T12:04:34.918Z,0.30
2022-09-28T12:09:46.512Z,0.53
2022-09-28T12:15:00.818Z,0.50
2022-09-28T12:20:13.138Z,0.67
2022-09-28T12:25:22.078Z,0.80
2022-09-28T12:30:26.473Z,0.73
2022-09-28T12:35:40.507Z,1.00
2022-09-28T12:40:53.781Z,0.83
2022-09-28T12:46:29.532Z,0.80
2022-09-28T12:51:43.626Z,1.03
2022-09-28T12:57:00.415Z,0.60
2022-09-28T13:02:27.507Z,0.30
2022-09-28T13:07:38.117Z,0.60
2022-09-28T13:12:55.757Z,0.50
2022-09-28T13:18:09.126Z,0.53
2022-09-28T13:23:20.589Z,0.40
2022-09-28T13:28:27.167Z,0.40
2022-09-28T13:33:36.732Z,0.60
2022-09-28T13:38:50.266Z,0.43
2022-09-28T13:44:12.977Z,0.53
2022-09-28T13:49:23.918Z,0.50
2022-09-28T13:54:46.204Z,0.40
2022-09-28T14:00:10.353Z,0.60
2022-09-28T14:05:47.806Z,0.40
2022-09-28T14:10:52.730Z,1.00
2022-09-28T14:16:21.556Z,0.70
2022-09-28T14:21:58.027Z,0.83
2022-09-28T14:27:28.381Z,0.57
2022-09-28T14:32:37.452Z,0.60
2022-09-28T14:38:00.322Z,0.33
2022-09-28T14:43:26.898Z,0.57
2022-09-28T14:48:48.385Z,0.40
2022-09-28T14:53:52.479Z,0.60
2022-09-28T14:58:58.851Z,0.60
2022-09-28T15:04:05.426Z,0.50
2022-09-28T15:09:29.569Z,0.40
2022-09-28T15:14:45.386Z,0.30
2022-09-28T15:19:58.233Z,0.43
2022-09-28T15:25:03.186Z,0.60
2022-09-28T15:30:22.391Z,0.40
2022-09-28T15:35:28.387Z,0.30
2022-09-28T15:40:34.744Z,0.20
2022-09-28T15:45:40.547Z,0.30
2022-09-28T15:50:58.984Z,0.37
2022-09-28T15:56:09.844Z,0.57
2022-09-28T16:01:35.832Z,0.43
2022-09-28T16:06:41.787Z,0.40
2022-09-28T16:11:45.117Z,0.50
2022-09-28T16:16:49.323Z,0.73
2022-09-28T16:21:55.807Z,1.07
2022-09-28T16:27:01.551Z,1.20
2022-09-28T16:32:35.036Z,0.80
2022-09-28T16:37:42.532Z,0.70
2022-09-28T16:42:49.033Z,0.60
2022-09-28T16:47:53.483Z,0.60
2022-09-28T16:53:24.715Z,0.50
2022-09-28T16:58:28.137Z,0.40
2022-09-28T17:03:31.217Z,0.50
2022-09-28T17:08:36.034Z,0.30
2022-09-28T17:13:38.948Z,0.50
2022-09-28T17:18:42.129Z,0.30
2022-09-28T17:23:47.220Z,0.50
2022-09-28T17:28:50.211Z,0.50
2022-09-28T17:33:54.423Z,0.20
2022-09-28T17:38:58.655Z,0.40
2022-09-28T17:44:02.975Z,0.27
2022-09-28T17:49:08.364Z,0.27
2022-09-28T17:54:13.654Z,0.27
2022-09-28T17:59:18.915Z,0.37
2022-09-28T18:04:50.136Z,0.40
2022-09-28T18:09:46.020Z,0.37
2022-09-28T18:14:48.918Z,0.60
2022-09-28T18:19:51.799Z,0.30
2022-09-28T18:24:56.083Z,0.47
2022-09-28T18:29:59.132Z,0.33
2022-09-28T18:35:02.030Z,0.13
2022-09-28T18:40:07.448Z,0.20
2022-09-28T18:45:12.011Z,0.40
2022-09-28T18:50:15.412Z,0.47
2022-09-28T18:55:19.982Z,0.80
2022-09-28T19:00:22.931Z,1.07
2022-09-28T19:05:27.420Z,1.20
2022-09-28T19:10:31.655Z,0.83
2022-09-28T19:15:34.639Z,1.00
2022-09-28T19:20:37.615Z,0.80
2022-09-28T19:25:41.941Z,0.77
2022-09-28T19:30:44.989Z,1.20
2022-09-28T19:35:56.326Z,0.70
2022-09-28T19:41:01.172Z,1.00
2022-09-28T19:46:05.694Z,0.90
2022-09-28T19:51:08.771Z,0.80
2022-09-28T19:56:13.022Z,0.70
2022-09-28T20:01:16.044Z,1.50
2022-09-28T20:06:19.003Z,1.20
2022-09-28T20:11:23.444Z,0.87
2022-09-28T20:16:28.772Z,0.53
2022-09-28T20:21:31.740Z,0.50
2022-09-28T20:26:37.766Z,0.53
2022-09-28T20:31:42.602Z,0.50
2022-09-28T20:36:45.538Z,0.50
2022-09-28T20:41:49.819Z,0.53
2022-09-28T20:46:52.847Z,0.43
2022-09-28T20:51:55.890Z,0.43
2022-09-28T20:57:00.188Z,0.47
2022-09-28T21:02:03.272Z,0.50
2022-09-28T21:07:06.322Z,0.57
2022-09-28T21:12:10.651Z,0.60
2022-09-28T21:17:13.569Z,0.70
2022-09-28T21:22:16.503Z,0.40
2022-09-28T21:27:20.793Z,0.40
2022-09-28T21:32:24.183Z,0.77
2022-09-28T21:37:27.100Z,0.40
2022-09-28T21:42:31.378Z,0.40
2022-09-28T21:47:34.292Z,0.50
2022-09-28T21:52:37.284Z,0.50
2022-09-28T21:57:41.648Z,0.60
2022-09-28T22:02:44.955Z,0.87
2022-09-28T22:07:48.020Z,1.10
2022-09-28T22:12:52.302Z,0.60
2022-09-28T22:17:55.283Z,0.70
2022-09-28T22:22:58.212Z,0.93
2022-09-28T22:28:02.885Z,1.27
2022-09-28T22:33:05.830Z,1.40
2022-09-28T22:38:08.788Z,1.57
2022-09-28T22:43:13.092Z,0.90
2022-09-28T22:48:16.031Z,1.37
2022-09-28T22:53:19.264Z,0.87
2022-09-28T22:58:23.609Z,1.13
2022-09-28T23:03:26.607Z,1.20
2022-09-28T23:08:29.856Z,0.80
2022-09-28T23:13:35.054Z,0.90
2022-09-28T23:18:40.800Z,0.73
2022-09-28T23:23:44.137Z,0.87
2022-09-28T23:28:48.505Z,0.80
2022-09-28T23:33:52.210Z,0.60
2022-09-28T23:38:55.446Z,0.80
2022-09-28T23:43:59.733Z,0.70
2022-09-28T23:49:03.016Z,0.50
2022-09-28T23:54:06.696Z,0.40
2022-09-28T23:59:11.003Z,0.70
